createdAt,value
2019-06-10T00:00:31.402Z,49.19
2019-06-10T00:01:31.475Z,49.39
2019-06-10T00:02:31.046Z,49.58
2019-06-10T00:03:31.805Z,48.79
2019-06-10T00:04:30.979Z,49.41
2019-06-10T00:05:30.846Z,50.01
2019-06-10T00:06:31.156Z,50.21
2019-06-10T00:07:31.604Z,49.31
2019-06-10T00:08:30.954Z,49.21
2019-06-10T00:09:31.186Z,49.31
2019-06-10T00:10:31.153Z,49.51
2019-06-10T00:11:31.519Z,49.99
2019-06-10T00:12:31.453Z,49.99
2019-06-10T00:13:31.459Z,50.42
2019-06-10T00:14:31.467Z,49.81
2019-06-10T00:15:31.392Z,49.81
2019-06-10T00:16:30.937Z,50.11
2019-06-10T00:17:31.437Z,50.62
2019-06-10T00:18:41.049Z,50.81
2019-06-10T00:19:31.769Z,51.51
2019-06-10T00:20:30.650Z,51.62
2019-06-10T00:21:30.852Z,53.02
2019-06-10T00:22:31.509Z,53.32
2019-06-10T00:23:32.012Z,53.22
2019-06-10T00:24:31.527Z,54.05
2019-06-10T00:25:31.382Z,55.55
2019-06-10T00:26:30.827Z,55.75
2019-06-10T00:27:31.191Z,55.75
2019-06-10T00:28:31.102Z,56.58
2019-06-10T00:29:31.313Z,57.68
2019-06-10T00:30:31.324Z,56.08
2019-06-10T00:31:31.308Z,57.39
2019-06-10T00:32:32.025Z,57.18
2019-06-10T00:33:30.943Z,57.11
2019-06-10T00:34:31.539Z,56.98
2019-06-10T00:35:31.531Z,55.30
2019-06-10T00:36:30.877Z,58.31
2019-06-10T00:37:31.547Z,60.42
2019-06-10T00:38:31.866Z,58.51
2019-06-10T00:39:31.252Z,58.92
2019-06-10T00:40:31.686Z,56.91
2019-06-10T00:41:31.290Z,57.94
2019-06-10T00:42:31.443Z,57.34
2019-06-10T00:43:30.648Z,60.12
2019-06-10T00:44:31.116Z,60.05
2019-06-10T00:45:31.539Z,60.55
2019-06-10T00:46:31.699Z,61.05
2019-06-10T00:47:30.780Z,61.18
2019-06-10T00:48:32.335Z,61.49
2019-06-10T00:49:31.715Z,61.29
2019-06-10T00:50:30.845Z,63.70
2019-06-10T00:51:31.351Z,63.70
2019-06-10T00:52:30.873Z,63.79
2019-06-10T00:53:31.609Z,64.50
2019-06-10T00:54:31.216Z,61.41
2019-06-10T00:55:31.468Z,62.72
2019-06-10T00:56:30.838Z,61.31
2019-06-10T00:57:31.440Z,60.44
2019-06-10T00:58:31.781Z,63.02
2019-06-10T00:59:31.201Z,65.84
2019-06-10T01:00:31.638Z,63.05
2019-06-10T01:01:31.274Z,62.55
2019-06-10T01:02:31.740Z,65.47
2019-06-10T01:03:31.410Z,67.27
2019-06-10T01:04:31.750Z,66.87
2019-06-10T01:05:31.256Z,66.57
2019-06-10T01:06:31.638Z,65.19
2019-06-10T01:07:31.156Z,64.79
2019-06-10T01:08:31.427Z,65.30
2019-06-10T01:09:31.057Z,64.99
2019-06-10T01:10:31.530Z,65.50
2019-06-10T01:11:31.049Z,65.70
2019-06-10T01:12:31.489Z,65.70
2019-06-10T01:13:30.952Z,65.50
2019-06-10T01:14:29.241Z,66.13
2019-06-10T01:15:31.173Z,65.09
2019-06-10T01:16:31.634Z,65.22
2019-06-10T01:17:31.138Z,66.03
2019-06-10T01:18:37.570Z,66.13
2019-06-10T01:19:31.053Z,68.15
2019-06-10T01:20:29.101Z,70.86
2019-06-10T01:21:31.158Z,70.26
2019-06-10T01:22:31.461Z,72.41
2019-06-10T01:23:30.932Z,72.81
2019-06-10T01:24:31.279Z,73.21
2019-06-10T01:25:30.991Z,74.52
2019-06-10T01:26:31.015Z,73.55
2019-06-10T01:27:31.372Z,71.97
2019-06-10T01:28:31.191Z,73.35
2019-06-10T01:29:31.298Z,74.86
2019-06-10T01:30:31.074Z,76.00
2019-06-10T01:31:31.561Z,75.40
2019-06-10T01:32:31.009Z,77.01
2019-06-10T01:33:28.795Z,76.00
2019-06-10T01:34:30.967Z,76.20
2019-06-10T01:35:30.596Z,77.42
2019-06-10T01:36:31.197Z,77.42
2019-06-10T01:37:30.964Z,77.55
2019-06-10T01:38:28.664Z,76.04
2019-06-10T01:39:30.716Z,77.45
2019-06-10T01:40:31.270Z,80.47
2019-06-10T01:41:30.604Z,83.00
2019-06-10T01:42:30.693Z,84.85
2019-06-10T01:43:28.542Z,86.30
2019-06-10T01:44:30.802Z,88.77
2019-06-10T01:45:28.495Z,88.06
2019-06-10T01:46:28.492Z,89.22
2019-06-10T01:47:30.840Z,91.28
2019-06-10T01:48:40.554Z,91.18
2019-06-10T01:49:30.614Z,92.19
2019-06-10T01:50:28.370Z,90.72
2019-06-10T01:51:28.363Z,90.56
2019-06-10T01:52:28.313Z,92.58
2019-06-10T01:53:28.291Z,91.31
2019-06-10T01:54:28.263Z,90.91
2019-06-10T01:55:28.243Z,90.84
2019-06-10T01:56:28.238Z,89.94
2019-06-10T01:57:30.741Z,88.92
2019-06-10T01:58:28.171Z,89.02
2019-06-10T01:59:30.980Z,89.26
2019-06-10T02:00:28.121Z,90.48
2019-06-10T02:01:30.537Z,90.28
2019-06-10T02:02:28.060Z,89.87
2019-06-10T02:03:28.032Z,90.64
2019-06-10T02:04:28.011Z,89.57
2019-06-10T02:05:27.980Z,91.30
2019-06-10T02:06:27.997Z,90.48
2019-06-10T02:07:27.922Z,89.06
2019-06-10T02:08:27.897Z,85.93
2019-06-10T02:09:27.869Z,86.49
2019-06-10T02:10:27.845Z,85.88
2019-06-10T02:11:27.816Z,86.49
2019-06-10T02:12:27.821Z,87.30
2019-06-10T02:13:27.763Z,86.49
2019-06-10T02:14:27.735Z,87.20
2019-06-10T02:15:27.719Z,89.32
2019-06-10T02:16:27.682Z,88.42
2019-06-10T02:17:27.687Z,90.03
2019-06-10T02:18:27.630Z,91.15
2019-06-10T02:19:27.603Z,91.25
2019-06-10T02:20:27.573Z,90.75
2019-06-10T02:21:27.550Z,89.02
2019-06-10T02:22:27.545Z,90.75
2019-06-10T02:23:27.493Z,90.03
2019-06-10T02:24:27.464Z,90.14
2019-06-10T02:25:27.440Z,90.54
2019-06-10T02:26:27.412Z,90.54
2019-06-10T02:27:27.407Z,91.35
2019-06-10T02:28:27.357Z,91.15
2019-06-10T02:29:27.331Z,91.05
2019-06-10T02:30:40.430Z,91.75
2019-06-10T02:31:35.555Z,90.34
2019-06-10T02:32:32.989Z,90.24
2019-06-10T02:33:30.923Z,90.44
2019-06-10T02:34:27.783Z,90.84
2019-06-10T02:35:43.062Z,90.64
2019-06-10T02:36:31.074Z,89.83
2019-06-10T02:37:32.230Z,90.24
2019-06-10T02:38:33.970Z,90.54
2019-06-10T02:39:33.703Z,89.94
2019-06-10T02:40:32.074Z,90.03
2019-06-10T02:41:31.970Z,90.03
2019-06-10T02:42:30.697Z,91.25
2019-06-10T02:43:31.920Z,91.15
2019-06-10T02:44:33.128Z,91.05
2019-06-10T02:45:33.666Z,92.57
2019-06-10T02:46:31.156Z,90.54
2019-06-10T02:47:33.435Z,90.64
2019-06-10T02:48:30.411Z,89.94
2019-06-10T02:49:46.911Z,90.54
2019-06-10T02:50:32.290Z,91.35
2019-06-10T02:51:30.716Z,91.15
2019-06-10T02:52:32.670Z,90.75
2019-06-10T02:53:30.666Z,91.25
2019-06-10T02:54:31.489Z,90.44
2019-06-10T02:55:30.905Z,90.34
2019-06-10T02:56:30.759Z,90.50
2019-06-10T02:57:32.887Z,91.61
2019-06-10T02:58:33.290Z,92.22
2019-06-10T02:59:30.025Z,91.82
2019-06-10T03:00:36.817Z,91.25
2019-06-10T03:01:32.121Z,89.79
2019-06-10T03:02:31.928Z,90.50
2019-06-10T03:03:36.949Z,90.20
2019-06-10T03:04:31.459Z,89.43
2019-06-10T03:05:31.456Z,88.11
2019-06-10T03:06:33.428Z,89.18
2019-06-10T03:07:29.359Z,88.37
2019-06-10T03:08:29.817Z,88.82
2019-06-10T03:09:30.025Z,88.72
2019-06-10T03:10:30.878Z,88.62
2019-06-10T03:11:29.673Z,88.42
2019-06-10T03:12:26.204Z,87.66
2019-06-10T03:13:26.152Z,88.42
2019-06-10T03:14:26.124Z,88.27
2019-06-10T03:15:26.794Z,88.37
2019-06-10T03:16:26.074Z,89.69
2019-06-10T03:17:26.090Z,90.09
2019-06-10T03:18:26.059Z,90.64
2019-06-10T03:19:42.277Z,88.27
2019-06-10T03:20:26.043Z,88.78
2019-06-10T03:21:26.041Z,89.59
2019-06-10T03:22:25.979Z,89.59
2019-06-10T03:23:27.779Z,88.98
2019-06-10T03:24:25.868Z,90.50
2019-06-10T03:25:26.496Z,90.50
2019-06-10T03:26:25.806Z,90.20
2019-06-10T03:27:26.571Z,90.70
2019-06-10T03:28:25.780Z,90.09
2019-06-10T03:29:26.883Z,90.40
2019-06-10T03:30:37.330Z,90.60
2019-06-10T03:31:33.922Z,90.40
2019-06-10T03:32:33.190Z,90.50
2019-06-10T03:33:34.544Z,90.86
2019-06-10T03:34:33.485Z,91.51
2019-06-10T03:35:26.884Z,92.18
2019-06-10T03:36:27.010Z,93.08
2019-06-10T03:37:26.351Z,91.71
2019-06-10T03:38:28.109Z,92.28
2019-06-10T03:39:27.378Z,91.31
2019-06-10T03:40:27.471Z,91.47
2019-06-10T03:41:26.789Z,92.58
2019-06-10T03:42:26.880Z,92.63
2019-06-10T03:43:26.673Z,92.88
2019-06-10T03:44:27.130Z,93.29
2019-06-10T03:45:28.066Z,93.23
2019-06-10T03:46:26.997Z,93.08
2019-06-10T03:47:27.051Z,92.88
2019-06-10T03:48:26.826Z,93.59
2019-06-10T03:49:26.861Z,93.29
2019-06-10T03:50:26.807Z,91.67
2019-06-10T03:51:27.443Z,92.32
2019-06-10T03:52:26.761Z,91.71
2019-06-10T03:53:26.765Z,92.99
2019-06-10T03:54:28.226Z,92.88
2019-06-10T03:55:27.945Z,92.72
2019-06-10T03:56:25.483Z,92.63
2019-06-10T03:57:26.824Z,92.32
2019-06-10T03:58:27.451Z,92.42
2019-06-10T03:59:27.799Z,92.42
2019-06-10T04:00:27.201Z,92.83
2019-06-10T04:01:28.279Z,93.03
2019-06-10T04:02:25.595Z,92.12
2019-06-10T04:03:27.478Z,91.57
2019-06-10T04:04:25.612Z,92.18
2019-06-10T04:05:25.765Z,91.97
2019-06-10T04:06:27.312Z,91.87
2019-06-10T04:07:28.341Z,92.13
2019-06-10T04:08:25.410Z,92.84
2019-06-10T04:09:25.831Z,92.54
2019-06-10T04:10:27.785Z,91.22
2019-06-10T04:11:26.781Z,91.53
2019-06-10T04:12:26.224Z,91.63
2019-06-10T04:13:25.830Z,90.82
2019-06-10T04:14:25.453Z,90.82
2019-06-10T04:15:26.580Z,90.72
2019-06-10T04:16:26.674Z,90.62
2019-06-10T04:17:25.741Z,90.27
2019-06-10T04:18:26.572Z,90.01
2019-06-10T04:19:26.829Z,90.07
2019-06-10T04:20:26.499Z,90.58
2019-06-10T04:21:25.816Z,89.76
2019-06-10T04:22:26.592Z,89.87
2019-06-10T04:23:25.467Z,89.06
2019-06-10T04:24:25.449Z,88.92
2019-06-10T04:25:26.666Z,88.96
2019-06-10T04:26:25.759Z,89.01
2019-06-10T04:27:25.615Z,89.16
2019-06-10T04:28:25.834Z,89.06
2019-06-10T04:29:25.882Z,88.96
2019-06-10T04:30:26.107Z,88.96
2019-06-10T04:31:25.444Z,89.97
2019-06-10T04:32:25.726Z,89.66
2019-06-10T04:33:25.791Z,89.16
2019-06-10T04:34:28.257Z,89.36
2019-06-10T04:35:25.936Z,88.35
2019-06-10T04:36:26.197Z,88.75
2019-06-10T04:37:26.173Z,88.65
2019-06-10T04:38:25.983Z,88.75
2019-06-10T04:39:26.050Z,88.85
2019-06-10T04:40:26.015Z,88.65
2019-06-10T04:41:24.980Z,88.75
2019-06-10T04:42:25.718Z,89.56
2019-06-10T04:43:25.957Z,90.01
2019-06-10T04:44:26.102Z,89.87
2019-06-10T04:45:26.015Z,90.01
2019-06-10T04:46:26.423Z,90.17
2019-06-10T04:47:25.263Z,89.61
2019-06-10T04:48:25.882Z,89.91
2019-06-10T04:49:25.514Z,90.41
2019-06-10T04:50:33.121Z,90.21
2019-06-10T04:51:26.479Z,89.70
2019-06-10T04:52:25.180Z,90.21
2019-06-10T04:53:25.238Z,90.21
2019-06-10T04:54:26.306Z,90.52
2019-06-10T04:55:25.033Z,90.62
2019-06-10T04:56:25.838Z,90.16
2019-06-10T04:57:25.086Z,90.82
2019-06-10T04:58:25.929Z,89.91
2019-06-10T04:59:26.044Z,90.11
2019-06-10T05:00:25.461Z,89.81
2019-06-10T05:01:25.558Z,89.61
2019-06-10T05:02:26.430Z,90.82
2019-06-10T05:03:24.980Z,89.81
2019-06-10T05:04:24.066Z,89.61
2019-06-10T05:05:24.990Z,89.40
2019-06-10T05:06:25.203Z,90.82
2019-06-10T05:07:34.181Z,90.52
2019-06-10T05:08:23.923Z,90.41
2019-06-10T05:09:24.395Z,89.61
2019-06-10T05:10:24.113Z,90.01
2019-06-10T05:11:24.198Z,89.85
2019-06-10T05:12:24.965Z,90.62
2019-06-10T05:13:24.168Z,90.01
2019-06-10T05:14:25.268Z,90.31
2019-06-10T05:15:24.910Z,89.70
2019-06-10T05:16:27.046Z,90.41
2019-06-10T05:17:26.102Z,90.62
2019-06-10T05:18:25.496Z,90.52
2019-06-10T05:19:24.754Z,90.31
2019-06-10T05:20:43.655Z,89.70
2019-06-10T05:21:25.991Z,90.11
2019-06-10T05:22:25.329Z,89.81
2019-06-10T05:23:24.869Z,89.91
2019-06-10T05:24:25.196Z,90.21
2019-06-10T05:25:24.195Z,90.01
2019-06-10T05:26:25.495Z,90.41
2019-06-10T05:27:24.232Z,90.11
2019-06-10T05:28:24.462Z,90.11
2019-06-10T05:29:24.945Z,90.37
2019-06-10T05:30:25.040Z,90.27
2019-06-10T05:31:26.691Z,90.07
2019-06-10T05:32:23.219Z,90.07
2019-06-10T05:33:23.134Z,90.17
2019-06-10T05:34:25.062Z,90.37
2019-06-10T05:35:24.367Z,90.11
2019-06-10T05:36:25.621Z,90.27
2019-06-10T05:37:23.761Z,90.62
2019-06-10T05:38:23.992Z,90.62
2019-06-10T05:39:24.221Z,90.41
2019-06-10T05:40:24.772Z,90.52
2019-06-10T05:41:24.850Z,90.01
2019-06-10T05:42:24.429Z,90.41
2019-06-10T05:43:23.756Z,90.31
2019-06-10T05:44:24.223Z,90.01
2019-06-10T05:45:24.481Z,90.92
2019-06-10T05:46:23.975Z,90.78
2019-06-10T05:47:25.952Z,91.08
2019-06-10T05:48:22.723Z,90.37
2019-06-10T05:49:24.165Z,91.18
2019-06-10T05:50:23.409Z,90.47
2019-06-10T05:51:25.880Z,90.98
2019-06-10T05:52:23.385Z,91.18
2019-06-10T05:53:23.089Z,90.88
2019-06-10T05:54:23.357Z,90.47
2019-06-10T05:55:22.818Z,90.58
2019-06-10T05:56:23.508Z,90.03
2019-06-10T05:57:23.023Z,89.62
2019-06-10T05:58:23.504Z,88.61
2019-06-10T05:59:23.038Z,88.71
2019-06-10T06:00:23.357Z,88.77
2019-06-10T06:01:24.268Z,88.67
2019-06-10T06:02:22.280Z,87.12
2019-06-10T06:03:22.977Z,86.36
2019-06-10T06:04:23.353Z,86.22
2019-06-10T06:05:22.200Z,85.22
2019-06-10T06:06:22.937Z,85.08
2019-06-10T06:07:22.238Z,85.17
2019-06-10T06:08:22.786Z,85.48
2019-06-10T06:09:22.130Z,84.94
2019-06-10T06:10:22.372Z,84.43
2019-06-10T06:11:23.151Z,83.22
2019-06-10T06:12:22.560Z,83.02
2019-06-10T06:13:23.224Z,83.52
2019-06-10T06:14:22.677Z,83.32
2019-06-10T06:15:22.125Z,83.32
2019-06-10T06:16:23.076Z,83.97
2019-06-10T06:17:23.608Z,85.08
2019-06-10T06:18:22.564Z,84.91
2019-06-10T06:19:23.147Z,86.07
2019-06-10T06:20:23.397Z,86.47
2019-06-10T06:21:29.563Z,86.91
2019-06-10T06:22:22.114Z,87.98
2019-06-10T06:23:23.174Z,86.81
2019-06-10T06:24:22.059Z,87.32
2019-06-10T06:25:24.093Z,87.32
2019-06-10T06:26:23.546Z,88.12
2019-06-10T06:27:22.495Z,87.92
2019-06-10T06:28:22.964Z,87.82
2019-06-10T06:29:22.243Z,87.72
2019-06-10T06:30:22.670Z,87.92
2019-06-10T06:31:23.134Z,87.88
2019-06-10T06:32:23.426Z,87.27
2019-06-10T06:33:22.148Z,87.58
2019-06-10T06:34:22.521Z,87.43
2019-06-10T06:35:22.700Z,86.33
2019-06-10T06:36:22.643Z,85.78
2019-06-10T06:37:23.040Z,85.08
2019-06-10T06:38:22.431Z,85.24
2019-06-10T06:39:20.845Z,83.93
2019-06-10T06:40:22.964Z,83.48
2019-06-10T06:41:22.657Z,84.59
2019-06-10T06:42:22.848Z,83.75
2019-06-10T06:43:22.236Z,81.90
2019-06-10T06:44:23.190Z,81.70
2019-06-10T06:45:22.233Z,81.79
2019-06-10T06:46:23.130Z,81.15
2019-06-10T06:47:22.607Z,80.15
2019-06-10T06:48:22.612Z,81.76
2019-06-10T06:49:22.962Z,81.84
2019-06-10T06:50:24.860Z,83.14
2019-06-10T06:51:35.483Z,83.18
2019-06-10T06:52:38.911Z,83.18
2019-06-10T06:53:31.930Z,83.48
2019-06-10T06:54:22.880Z,83.93
2019-06-10T06:55:20.468Z,84.83
2019-06-10T06:56:22.879Z,85.84
2019-06-10T06:57:22.359Z,85.28
2019-06-10T06:58:20.394Z,84.88
2019-06-10T06:59:22.295Z,84.83
2019-06-10T07:00:38.294Z,84.74
2019-06-10T07:01:23.250Z,84.94
2019-06-10T07:02:22.571Z,84.13
2019-06-10T07:03:20.278Z,83.28
2019-06-10T07:04:20.259Z,83.11
2019-06-10T07:05:24.772Z,81.35
2019-06-10T07:06:22.772Z,79.81
2019-06-10T07:07:22.104Z,80.68
2019-06-10T07:08:20.157Z,79.97
2019-06-10T07:09:22.095Z,78.22
2019-06-10T07:10:20.110Z,77.72
2019-06-10T07:11:22.258Z,77.72
2019-06-10T07:12:20.151Z,77.32
2019-06-10T07:13:22.053Z,77.42
2019-06-10T07:14:20.016Z,78.29
2019-06-10T07:15:22.380Z,77.79
2019-06-10T07:16:23.035Z,76.68
2019-06-10T07:17:22.584Z,76.48
2019-06-10T07:18:19.950Z,76.38
2019-06-10T07:19:22.504Z,76.72
2019-06-10T07:20:19.884Z,77.48
2019-06-10T07:21:19.861Z,76.48
2019-06-10T07:22:19.831Z,76.68
2019-06-10T07:23:22.394Z,75.78
2019-06-10T07:24:19.790Z,75.31
2019-06-10T07:25:19.764Z,76.58
2019-06-10T07:26:22.018Z,76.45
2019-06-10T07:27:19.718Z,76.34
2019-06-10T07:28:19.901Z,75.31
2019-06-10T07:29:19.675Z,74.97
2019-06-10T07:30:19.675Z,74.27
2019-06-10T07:31:24.845Z,73.77
2019-06-10T07:32:19.609Z,74.33
2019-06-10T07:33:19.610Z,73.63
2019-06-10T07:34:22.112Z,72.80
2019-06-10T07:35:19.542Z,72.76
2019-06-10T07:36:19.548Z,71.36
2019-06-10T07:37:20.281Z,71.56
2019-06-10T07:38:22.052Z,71.36
2019-06-10T07:39:19.543Z,71.46
2019-06-10T07:40:19.435Z,71.59
2019-06-10T07:41:19.417Z,72.30
2019-06-10T07:42:19.512Z,72.53
2019-06-10T07:43:19.413Z,72.93
2019-06-10T07:44:19.354Z,73.19
2019-06-10T07:45:19.377Z,72.50
2019-06-10T07:46:19.321Z,72.69
2019-06-10T07:47:19.359Z,72.56
2019-06-10T07:48:19.320Z,72.46
2019-06-10T07:49:19.797Z,72.42
2019-06-10T07:50:19.226Z,72.33
2019-06-10T07:51:22.632Z,72.59
2019-06-10T07:52:20.095Z,70.32
2019-06-10T07:53:19.181Z,69.09
2019-06-10T07:54:19.137Z,70.49
2019-06-10T07:55:19.118Z,69.69
2019-06-10T07:56:19.148Z,70.09
2019-06-10T07:57:19.081Z,70.19
2019-06-10T07:58:19.428Z,70.19
2019-06-10T07:59:19.041Z,70.39
2019-06-10T08:00:19.125Z,69.99
2019-06-10T08:01:19.006Z,69.99
2019-06-10T08:02:19.017Z,70.43
2019-06-10T08:03:19.059Z,71.33
2019-06-10T08:04:18.987Z,71.73
2019-06-10T08:05:18.917Z,70.89
2019-06-10T08:06:18.912Z,71.36
2019-06-10T08:07:18.880Z,70.86
2019-06-10T08:08:19.873Z,70.62
2019-06-10T08:09:18.840Z,69.39
2019-06-10T08:10:18.902Z,68.23
2019-06-10T08:11:18.889Z,67.80
2019-06-10T08:12:18.769Z,67.90
2019-06-10T08:13:18.747Z,67.07
2019-06-10T08:14:18.777Z,66.66
2019-06-10T08:15:18.734Z,66.93
2019-06-10T08:16:19.310Z,66.70
2019-06-10T08:17:18.699Z,65.20
2019-06-10T08:18:19.296Z,64.34
2019-06-10T08:19:33.747Z,64.71
2019-06-10T08:20:18.671Z,65.80
2019-06-10T08:21:18.606Z,64.71
2019-06-10T08:22:32.988Z,65.31
2019-06-10T08:23:18.599Z,64.87
2019-06-10T08:24:18.571Z,65.37
2019-06-10T08:25:18.501Z,64.25
2019-06-10T08:26:18.475Z,64.54
2019-06-10T08:27:18.464Z,63.22
2019-06-10T08:28:18.483Z,64.12
2019-06-10T08:29:18.452Z,64.42
2019-06-10T08:30:23.187Z,60.24
2019-06-10T08:31:18.382Z,61.50
2019-06-10T08:32:18.371Z,61.50
2019-06-10T08:33:18.343Z,62.19
2019-06-10T08:34:18.362Z,61.69
2019-06-10T08:35:18.356Z,62.49
2019-06-10T08:36:18.352Z,62.40
2019-06-10T08:37:18.297Z,61.80
2019-06-10T08:38:18.313Z,61.69
2019-06-10T08:39:18.882Z,61.40
2019-06-10T08:40:18.208Z,59.81
2019-06-10T08:41:18.183Z,60.70
2019-06-10T08:42:18.166Z,61.17
2019-06-10T08:43:18.290Z,58.75
2019-06-10T08:44:18.151Z,59.05
2019-06-10T08:45:18.109Z,55.85
2019-06-10T08:46:18.086Z,57.51
2019-06-10T08:47:18.078Z,55.52
2019-06-10T08:48:18.056Z,55.59
2019-06-10T08:49:18.069Z,56.36
2019-06-10T08:50:21.111Z,56.46
2019-06-10T08:51:17.998Z,56.95
2019-06-10T08:52:17.986Z,54.97
2019-06-10T08:53:18.330Z,55.07
2019-06-10T08:54:17.968Z,55.47
2019-06-10T08:55:17.924Z,55.96
2019-06-10T08:56:17.916Z,56.06
2019-06-10T08:57:17.899Z,54.94
2019-06-10T08:58:17.874Z,56.34
2019-06-10T08:59:17.872Z,56.93
2019-06-10T09:00:18.778Z,54.75
2019-06-10T09:01:17.812Z,54.55
2019-06-10T09:02:17.803Z,54.57
2019-06-10T09:03:17.787Z,55.15
2019-06-10T09:04:17.788Z,54.45
2019-06-10T09:05:17.740Z,55.64
2019-06-10T09:06:17.728Z,55.83
2019-06-10T09:07:17.712Z,54.85
2019-06-10T09:08:17.697Z,54.55
2019-06-10T09:09:17.724Z,52.73
2019-06-10T09:10:17.663Z,53.31
2019-06-10T09:11:20.551Z,54.49
2019-06-10T09:12:32.331Z,54.17
2019-06-10T09:13:17.604Z,54.07
2019-06-10T09:14:17.589Z,53.18
2019-06-10T09:15:17.595Z,52.78
2019-06-10T09:16:19.494Z,50.71
2019-06-10T09:17:17.532Z,51.07
2019-06-10T09:18:20.192Z,51.87
2019-06-10T09:19:17.504Z,51.65
2019-06-10T09:20:17.516Z,52.04
2019-06-10T09:21:17.470Z,52.07
2019-06-10T09:22:17.450Z,50.68
2019-06-10T09:23:22.193Z,51.72
2019-06-10T09:24:17.442Z,52.91
2019-06-10T09:25:17.427Z,52.64
2019-06-10T09:26:17.378Z,52.73
2019-06-10T09:27:17.371Z,53.03
2019-06-10T09:28:17.349Z,53.33
2019-06-10T09:29:17.332Z,53.63
2019-06-10T09:30:17.344Z,53.33
2019-06-10T09:31:17.292Z,53.20
2019-06-10T09:32:17.290Z,52.02
2019-06-10T09:33:17.266Z,53.01
2019-06-10T09:34:17.257Z,52.81
2019-06-10T09:35:17.254Z,53.11
2019-06-10T09:36:17.262Z,52.81
2019-06-10T09:37:17.200Z,51.60
2019-06-10T09:38:17.173Z,51.42
2019-06-10T09:39:17.160Z,52.88
2019-06-10T09:40:17.214Z,53.18
2019-06-10T09:41:17.122Z,50.98
2019-06-10T09:42:17.107Z,51.87
2019-06-10T09:43:17.250Z,50.85
2019-06-10T09:44:17.073Z,50.66
2019-06-10T09:45:17.082Z,51.84
2019-06-10T09:46:17.034Z,50.29
2019-06-10T09:47:17.021Z,51.77
2019-06-10T09:48:17.006Z,51.99
2019-06-10T09:49:16.987Z,52.39
2019-06-10T09:50:16.993Z,52.69
2019-06-10T09:51:17.035Z,52.17
2019-06-10T09:52:17.201Z,52.61
2019-06-10T09:53:30.171Z,53.20
2019-06-10T09:54:17.070Z,53.41
2019-06-10T09:55:17.353Z,52.76
2019-06-10T09:56:16.870Z,52.64
2019-06-10T09:57:16.861Z,53.11
2019-06-10T09:58:16.855Z,53.20
2019-06-10T09:59:16.873Z,50.41
2019-06-10T10:00:16.802Z,50.51
2019-06-10T10:01:16.786Z,51.20
2019-06-10T10:02:16.823Z,50.29
2019-06-10T10:03:16.757Z,49.99
2019-06-10T10:04:16.784Z,50.88
2019-06-10T10:05:16.734Z,49.30
2019-06-10T10:06:16.707Z,49.10
2019-06-10T10:07:16.683Z,49.77
2019-06-10T10:08:16.676Z,49.67
2019-06-10T10:09:16.715Z,49.77
2019-06-10T10:10:16.646Z,49.25
2019-06-10T10:11:16.620Z,48.74
2019-06-10T10:12:16.606Z,48.34
2019-06-10T10:13:16.584Z,47.94
2019-06-10T10:14:16.618Z,48.02
2019-06-10T10:15:27.516Z,47.21
2019-06-10T10:16:16.542Z,48.19
2019-06-10T10:17:16.527Z,48.00
2019-06-10T10:18:16.511Z,47.68
2019-06-10T10:19:16.536Z,47.58
2019-06-10T10:20:16.480Z,46.20
2019-06-10T10:21:16.467Z,45.83
2019-06-10T10:22:16.444Z,45.93
2019-06-10T10:23:16.436Z,46.22
2019-06-10T10:24:16.567Z,46.44
2019-06-10T10:25:16.400Z,46.04
2019-06-10T10:26:16.600Z,47.55
2019-06-10T10:27:16.370Z,47.35
2019-06-10T10:28:16.371Z,47.77
2019-06-10T10:29:16.382Z,47.97
2019-06-10T10:30:16.321Z,49.55
2019-06-10T10:31:16.308Z,49.15
2019-06-10T10:32:16.293Z,48.46
2019-06-10T10:33:16.331Z,49.27
2019-06-10T10:34:16.271Z,49.57
2019-06-10T10:35:16.247Z,49.67
2019-06-10T10:36:16.272Z,49.05
2019-06-10T10:37:16.256Z,49.94
2019-06-10T10:38:16.205Z,48.46
2019-06-10T10:39:16.222Z,49.43
2019-06-10T10:40:16.175Z,49.22
2019-06-10T10:41:16.151Z,49.43
2019-06-10T10:42:16.136Z,49.33
2019-06-10T10:43:25.408Z,48.61
2019-06-10T10:44:16.150Z,48.61
2019-06-10T10:45:16.086Z,48.69
2019-06-10T10:46:16.067Z,48.49
2019-06-10T10:47:16.105Z,47.33
2019-06-10T10:48:16.088Z,49.25
2019-06-10T10:49:16.025Z,48.07
2019-06-10T10:50:16.006Z,49.08
2019-06-10T10:51:16.052Z,48.90
2019-06-10T10:52:15.979Z,49.79
2019-06-10T10:53:15.963Z,50.56
2019-06-10T10:54:25.530Z,50.07
2019-06-10T10:55:15.928Z,50.43
2019-06-10T10:56:15.966Z,50.02
2019-06-10T10:57:15.910Z,49.40
2019-06-10T10:58:15.888Z,49.18
2019-06-10T10:59:15.869Z,48.59
2019-06-10T11:00:15.849Z,48.00
2019-06-10T11:01:16.438Z,47.19
2019-06-10T11:02:15.890Z,48.76
2019-06-10T11:03:15.804Z,47.75
2019-06-10T11:04:15.787Z,46.50
2019-06-10T11:05:15.778Z,47.19
2019-06-10T11:06:15.794Z,46.79
2019-06-10T11:07:15.788Z,45.83
2019-06-10T11:08:15.728Z,46.32
2019-06-10T11:09:15.714Z,46.72
2019-06-10T11:10:15.712Z,47.60
2019-06-10T11:11:15.720Z,47.60
2019-06-10T11:12:15.665Z,47.41
2019-06-10T11:13:15.703Z,47.92
2019-06-10T11:14:15.704Z,47.92
2019-06-10T11:15:15.639Z,48.10
2019-06-10T11:16:15.610Z,48.00
2019-06-10T11:17:15.610Z,47.58
2019-06-10T11:18:15.583Z,47.48
2019-06-10T11:19:15.561Z,47.95
2019-06-10T11:20:15.634Z,47.56
2019-06-10T11:21:15.529Z,47.34
2019-06-10T11:22:15.538Z,47.34
2019-06-10T11:23:16.083Z,48.00
2019-06-10T11:24:32.484Z,47.09
2019-06-10T11:25:15.468Z,47.19
2019-06-10T11:26:15.454Z,46.41
2019-06-10T11:27:15.460Z,45.20
2019-06-10T11:28:15.423Z,45.50
2019-06-10T11:29:15.410Z,44.62
2019-06-10T11:30:15.401Z,44.81
2019-06-10T11:31:15.421Z,45.30
2019-06-10T11:32:15.384Z,45.13
2019-06-10T11:33:15.912Z,44.93
2019-06-10T11:34:15.356Z,45.50
2019-06-10T11:35:15.325Z,46.31
2019-06-10T11:36:15.303Z,46.01
2019-06-10T11:37:15.310Z,46.11
2019-06-10T11:38:15.276Z,47.00
2019-06-10T11:39:15.852Z,46.31
2019-06-10T11:40:15.246Z,47.12
2019-06-10T11:41:15.238Z,45.94
2019-06-10T11:42:15.249Z,46.15
2019-06-10T11:43:15.208Z,46.28
2019-06-10T11:44:15.190Z,46.87
2019-06-10T11:45:15.173Z,46.99
2019-06-10T11:46:15.154Z,46.69
2019-06-10T11:47:15.162Z,46.69
2019-06-10T11:48:15.127Z,45.93
2019-06-10T11:49:15.108Z,46.17
2019-06-10T11:50:15.151Z,47.75
2019-06-10T11:51:15.088Z,47.18
2019-06-10T11:52:15.092Z,48.66
2019-06-10T11:53:15.052Z,49.05
2019-06-10T11:54:15.030Z,48.34
2019-06-10T11:55:18.924Z,48.81
2019-06-10T11:56:14.997Z,48.00
2019-06-10T11:57:15.011Z,46.40
2019-06-10T11:58:14.960Z,46.20
2019-06-10T11:59:14.951Z,46.67
2019-06-10T12:00:17.335Z,45.15
2019-06-10T12:01:14.920Z,45.35
2019-06-10T12:02:14.936Z,45.30
2019-06-10T12:03:14.912Z,44.52
2019-06-10T12:04:14.886Z,44.32
2019-06-10T12:05:16.464Z,44.42
2019-06-10T12:06:14.849Z,44.83
2019-06-10T12:07:14.822Z,44.64
2019-06-10T12:08:14.999Z,44.64
2019-06-10T12:09:14.793Z,46.21
2019-06-10T12:10:14.774Z,45.42
2019-06-10T12:11:14.772Z,45.42
2019-06-10T12:12:15.381Z,45.32
2019-06-10T12:13:18.380Z,44.54
2019-06-10T12:14:15.011Z,43.53
2019-06-10T12:15:14.703Z,44.83
2019-06-10T12:17:05.717Z,44.91
2019-06-10T12:17:30.378Z,43.90
2019-06-10T12:18:14.679Z,43.00
2019-06-10T12:19:14.641Z,42.24
2019-06-10T12:20:14.628Z,43.22
2019-06-10T12:21:15.382Z,43.33
2019-06-10T12:22:14.621Z,43.95
2019-06-10T12:23:14.619Z,43.53
2019-06-10T12:24:14.569Z,43.43
2019-06-10T12:25:31.363Z,43.51
2019-06-10T12:26:14.543Z,43.32
2019-06-10T12:27:14.527Z,43.80
2019-06-10T12:28:14.542Z,43.51
2019-06-10T12:29:14.499Z,42.61
2019-06-10T12:30:14.492Z,42.80
2019-06-10T12:31:15.141Z,42.10
2019-06-10T12:32:14.762Z,42.29
2019-06-10T12:33:21.613Z,42.37
2019-06-10T12:34:14.425Z,42.27
2019-06-10T12:35:14.403Z,42.96
2019-06-10T12:36:14.393Z,42.35
2019-06-10T12:37:15.960Z,41.17
2019-06-10T12:38:14.425Z,42.15
2019-06-10T12:39:17.095Z,41.08
2019-06-10T12:40:14.334Z,41.84
2019-06-10T12:41:14.340Z,41.25
2019-06-10T12:42:14.480Z,40.37
2019-06-10T12:43:14.316Z,40.16
2019-06-10T12:44:14.281Z,39.39
2019-06-10T12:45:14.290Z,39.29
2019-06-10T12:46:14.266Z,40.00
2019-06-10T12:47:14.305Z,41.49
2019-06-10T12:48:14.255Z,41.51
2019-06-10T12:49:18.178Z,41.80
2019-06-10T12:50:14.200Z,41.72
2019-06-10T12:51:14.246Z,42.41
2019-06-10T12:52:14.176Z,42.24